Terminal Aerodrome Forecast
Issued by NWS

Current Version | Previous Version | Text Only | Print | Product List | Glossary On
Versions: 1 2 3 4 5 6 7 8 9 10 11 12 13 14 15 16 17 18 19 20 21 22 23 24 25 26 27 28 29 30 31 32 33 34 35 36 37 38 39 40 41 42 43 44 45 46
000 FTUS41 KBOX 012029 AAA TAFMHT TAF AMD KMHT 012029Z 0120/0218 22004KT P6SM SCT050 FM020900 VRB03KT P6SM BKN050 FM021200 VRB03KT P6SM BKN015 FM021500 21005KT P6SM SCT250=

USA.gov is the U.S. government's official web portal to all federal, state and local government web resources and services.